Hub


Voltar

 INFORMAÇÕES METEOROLÓGICAS

METAR FOR PAKT


ADDS - METARS form results

(2024 UTC 17 January 2019)
Data provider http://aviationweather.gov/metar/data/
 
METAR text: PAKT 172018Z 31007KT 10SM CLR 04/01 A2949 RMK AO2 HARBOR WIND 27012KT T00390006
Conditions at: PAKT (KETCHIKAN , AK, US) observed 2018 UTC 17 January 2019
Temperature: 3.9°C (39°F)
Dewpoint: 0.6°C (33°F) [RH = 79%]
Pressure (altimeter): 29.49 inches Hg (998.7 mb)
Winds: from the NW (310 degrees) at 8 MPH (7 knots; 3.6 m/s)
Visibility: 10 or more miles (16+ km)
Ceiling: at least 12,000 feet AGL
Clouds: sky clear below 12,000 feet AGL
Weather: no significant weather observed at this time

METAR text: PAKT 171953Z 31007KT 10SM CLR 03/00 A2950 RMK AO2 SLP990 HARBOR WIND 28010KT T00330000
Conditions at: PAKT (KETCHIKAN , AK, US) observed 1953 UTC 17 January 2019
Temperature: 3.3°C (38°F)
Dewpoint: 0.0°C (32°F) [RH = 79%]
Pressure (altimeter): 29.50 inches Hg (999.1 mb)
[Sea-level pressure:  999.0 mb]
Winds: from the NW (310 degrees) at 8 MPH (7 knots; 3.6 m/s)
Visibility: 10 or more miles (16+ km)
Ceiling: at least 12,000 feet AGL
Clouds: sky clear below 12,000 feet AGL
Weather: no significant weather observed at this time

Forecast for: PAKT (KETCHIKAN , AK, US)
Text: PAKT 171720Z 1718/1818 28005KT P6SM FEW080 BKN170 AMD LTD TO CLD VIS AND WIND 1806/1815
Forecast period: 1800 UTC 17 January 2019 to 1800 UTC 18 January 2019
Forecast type: FROM: standard forecast or significant change
Winds: from the W (280 degrees) at 6 MPH (5 knots; 2.6 m/s)
Visibility: 6 or more miles 10+ km)
Ceiling: 17000 feet AGL
Clouds: few clouds at 8000 feet AGL
broken clouds at 17000 feet AGL
Weather: no significant weather forecast for this period


 MAPA DO AEROPORTO


 INFORMAÇÕES DA PISTA

Pista 11 Tamanho da pista 7500 ft Largura da pista 150 ft
Elevação da pista 82 ft Ranhura da pista 0 ft Proa da pista 136
Pista 29 Tamanho da pista 7500 ft Largura da pista 150 ft
Elevação da pista 89 ft Ranhura da pista 0 ft Proa da pista 316
Pista ESE Tamanho da pista 9500 ft Largura da pista 1500 ft
Elevação da pista 0 ft Ranhura da pista 0 ft Proa da pista 0
Pista WNW Tamanho da pista 9500 ft Largura da pista 1500 ft
Elevação da pista 0 ft Ranhura da pista 0 ft Proa da pista 0

 FREQUÊNCIAS DO AEROPORTO

Tipo ATIS Nome ATIS Frequência 119.9 MHZ
Tipo CNTR Nome ANCHORAGE Frequência 118.5 MHZ
Tipo CTAF Nome CTAF Frequência 123.6 MHZ
Tipo FSS Nome RDO Frequência 123.6 MHZ
Tipo UNIC Nome UNICOM Frequência 122.95 MHZ

 AUXÍLIOS DE NAVEGAÇÃO PRÓXIMOS AO AEROPORTO

Tipo NDB Nome Clam Cove Frequência 396 KHZ